This is the latest recevied weather packets stored in our database for station/object ke5jzm-1. If no packets are shown the sender has not sent any weather packets the latest 10 day(s).
| Time | Temp. | Humidity | Pressure | Rain* | Wind** | Luminosity | Snow |
|---|---|---|---|---|---|---|---|
| 1777671898 | 23.89° C | 61% | 1011.8 hPa | 7.87 mm | - | 27 W/m² | - |
| 1777671839 | 24.44° C | 61% | 1011.8 hPa | 7.62 mm | - | 22 W/m² | - |
| 1777671763 | 23.89° C | 61% | 1011.9 hPa | 7.62 mm | - | 16 W/m² | - |
| 1777671700 | 24.44° C | 61% | 1011.9 hPa | 7.11 mm | - | 14 W/m² | - |
| 1777671634 | 24.44° C | 61% | 1011.9 hPa | 7.11 mm | - | 14 W/m² | - |
| 1777671574 | 23.89° C | 61% | 1011.9 hPa | 6.86 mm | - | 18 W/m² | - |
| 1777671514 | 23.89° C | 61% | 1011.9 hPa | 7.11 mm | - | 19 W/m² | - |
| 1777671454 | 23.89° C | 61% | 1011.9 hPa | 6.86 mm | - | 19 W/m² | - |
| 1777671389 | 24.44° C | 61% | 1011.8 hPa | 6.86 mm | - | 18 W/m² | - |
| 1777671328 | 23.89° C | 61% | 1011.7 hPa | 6.1 mm | - | 18 W/m² | - |
| 1777671267 | 23.89° C | 61% | 1011.7 hPa | 6.35 mm | - | 21 W/m² | - |
| 1777671206 | 24.44° C | 61% | 1011.5 hPa | 6.86 mm | - | 24 W/m² | - |
| 1777671146 | 23.89° C | 61% | 1011.3 hPa | 6.35 mm | - | 26 W/m² | - |
| 1777671086 | 24.44° C | 61% | 1011.2 hPa | 6.6 mm | - | 30 W/m² | - |
| 1777671026 | 23.89° C | 61% | 1011.1 hPa | 7.37 mm | - | 32 W/m² | - |
| 1777670966 | 23.89° C | 61% | 1011.1 hPa | 7.62 mm | - | 29 W/m² | - |
| 1777670906 | 24.44° C | 61% | 1011.2 hPa | 7.37 mm | - | 27 W/m² | - |
| 1777670847 | 24.44° C | 60% | 1011.4 hPa | 7.11 mm | - | 22 W/m² | - |
| 1777670786 | 23.89° C | 60% | 1011.6 hPa | 7.11 mm | - | 16 W/m² | - |
| 1777670726 | 24.44° C | 61% | 1011.5 hPa | 7.37 mm | - | 11 W/m² | - |
| 1777670666 | 24.44° C | 60% | 1011.5 hPa | 7.37 mm | - | 10 W/m² | - |
| 1777670606 | 24.44° C | 60% | 1011.5 hPa | 7.62 mm | - | 10 W/m² | - |
| 1777670550 | 24.44° C | 60% | 1011.4 hPa | 7.87 mm | - | 9 W/m² | - |
| 1777670476 | 23.89° C | 60% | 1011.3 hPa | 8.13 mm | - | 10 W/m² | - |
| 1777670416 | 23.89° C | 60% | 1011.3 hPa | 8.38 mm | - | 13 W/m² | - |
* Rain latest hour (hover to see other rain measurements)
** Current wind speed in m/s (hover to see current wind gust speed)